首页
METAR-TAF:

METAR-TAF

机场 :

Malcolm McKinnon Airport

布朗斯维克, 喬治亞, 美国

纬度: 31-09-06N, 经度: 081-23-29W, 海拔: 6米

当前天气观测

该预报发布于18分钟前的16:53 UTC
风速7节,风向东南
温度 32°C
湿度 63%
气压 1020 hPa
能見度: 16.1公里
天空无云

METAR: KSSI 201653Z AUTO 13007KT 10SM CLR 32/24 A3013 RMK AO2 SLP204 T03170239

时间: 13:11 (17:11 UTC)

预报

该预报发布于5小时和51分钟前的11:20 UTC
预报有效从20日的 12点(UTC)到 21日的 12点(UTC)
风速3节,风向多变
能見度: 10公里
少量云层高于8000英尺
多云层高于25000英尺
从 20日的 1500点(UTC)
风速10节,风向南转南东
能見度: 10公里
少量云层高于4000英尺
多云层高于25000英尺
从 21日的 0200点(UTC)
风速4节,风向多变
能見度: 10公里
多云层高于25000英尺

TAF: KSSI 201120Z 2012/2112 VRB03KT P6SM FEW080 BKN250 FM201500 15010KT P6SM FEW040 BKN250 FM210200 VRB04KT P6SM BKN250

超过4000个机场的气象观测和天气预报(METAR&TAF报告)。

可查询的气象台以黄色和红色小点在地图上表示。

将鼠标移到小点上方,可查看气象台名称。

然后点击查看天气观测和预报。

如需切换地图:点击带黑十字的绿色按钮放大地图;点击带横线的绿色按钮缩小地图;或者点击绿色箭头查看邻近地区的地图。


METAR-TAF: